Alameda, CA (94501)

2:07 AM PST on December 10, 2016 (GMT -0800)
Encinal & Lafayette | | Change Station

Elev 15 ft 37.77 °N, 122.26 °W | Updated 11 seconds ago

Overcast
Overcast
59.0 °F
Feels Like 59.0 °F
N
11.5
Wind Variable Wind from West
Gusts 11.5 mph

Today
High -- | Low -- °F
--% Chance of Precip.
Yesterday
High -- | Low -- °F
Precip. -- in
Pressure 30.12 in
Visibility 7.0 miles
Clouds Mostly Cloudy 1200 ft
Overcast 1800 ft
Dew Point 56 °F
Humidity 91%
Rainfall 0.00 in
Snow Depth Not available.
7:14 AM 4:50 PM
Waxing Gibbous, 82% visible
METAR KOAK 100953Z 19008KT 7SM -RA BKN012 OVC018 15/14 A3012 RMK AO2 SLP198 P0000 T01500144
Pressure 30.12 in
Visibility 7.0 miles
Clouds Mostly Cloudy 1200 ft
Overcast 1800 ft
Dew Point 56 °F
Humidity 91%
Rainfall 0.00 in
Snow Depth Not available.
7:14 AM 4:50 PM
Waxing Gibbous, 82% visible
METAR KOAK 100953Z 19008KT 7SM -RA BKN012 OVC018 15/14 A3012 RMK AO2 SLP198 P0000 T01500144

10-Day Weather Forecast

Almanac

Astronomy

Dec. 10, 2016 Rise Set
Actual Time
Civil Twilight
Nautical Twilight
Astronomical Twilight
Moon
Length of Visible Light
Length of Day
Tomorrow will be .
, % of the Moon is Illuminated

Today's Extremes

State Highs State Lows

Community

WunderPhotos

Upload Photos

1,956,536 photos uploaded!

WunderBlog® & News

Nearby

Air Quality

  Air Quality AQ Index Pollutant
Not available.

Snow Depth

Station Depth Elevation

Earthquake Activity

City Distance Mag. Time & Date
Minimum magnitude displayed is 2.5.

Coastal Water Temperatures

Place Temperature

Stations

Nearby Weather Stations

Station Location Temp. Windchill Dew Point Humidity Wind Precip. Elev Updated Type
                   

Watches & Warnings

There are currently no watches in effect.